sensor_id;sensor_type;location;lat;lon;timestamp;temperature;humidity
3418;DHT22;68007;51.312;12.372;2024-01-07T00:00:45;5.00;93.90
3418;DHT22;68007;51.312;12.372;2024-01-07T00:03:13;5.00;93.80
3418;DHT22;68007;51.312;12.372;2024-01-07T00:05:41;5.00;93.80
3418;DHT22;68007;51.312;12.372;2024-01-07T00:08:10;4.90;93.80
3418;DHT22;68007;51.312;12.372;2024-01-07T00:10:37;5.00;93.90
3418;DHT22;68007;51.312;12.372;2024-01-07T00:13:05;5.00;93.60
3418;DHT22;68007;51.312;12.372;2024-01-07T00:15:32;5.00;93.60
3418;DHT22;68007;51.312;12.372;2024-01-07T00:18:00;5.00;93.50
3418;DHT22;68007;51.312;12.372;2024-01-07T00:20:27;5.00;93.50
3418;DHT22;68007;51.312;12.372;2024-01-07T00:22:56;5.00;93.40
3418;DHT22;68007;51.312;12.372;2024-01-07T00:25:25;5.00;93.40
3418;DHT22;68007;51.312;12.372;2024-01-07T00:27:52;5.00;93.40
3418;DHT22;68007;51.312;12.372;2024-01-07T00:30:21;5.00;93.40
3418;DHT22;68007;51.312;12.372;2024-01-07T00:32:49;5.00;93.40
3418;DHT22;68007;51.312;12.372;2024-01-07T00:35:17;4.90;93.30
3418;DHT22;68007;51.312;12.372;2024-01-07T00:37:45;4.90;93.40
3418;DHT22;68007;51.312;12.372;2024-01-07T00:40:12;4.90;93.40
3418;DHT22;68007;51.312;12.372;2024-01-07T00:42:41;4.90;93.30
3418;DHT22;68007;51.312;12.372;2024-01-07T00:45:09;4.90;93.30
3418;DHT22;68007;51.312;12.372;2024-01-07T00:47:36;4.90;93.30
3418;DHT22;68007;51.312;12.372;2024-01-07T00:50:04;4.90;93.50
3418;DHT22;68007;51.312;12.372;2024-01-07T00:52:32;4.90;93.10
3418;DHT22;68007;51.312;12.372;2024-01-07T00:55:00;4.90;93.10
3418;DHT22;68007;51.312;12.372;2024-01-07T00:57:29;4.90;93.20
3418;DHT22;68007;51.312;12.372;2024-01-07T00:59:58;4.90;93.10
3418;DHT22;68007;51.312;12.372;2024-01-07T01:02:26;4.80;93.00
3418;DHT22;68007;51.312;12.372;2024-01-07T01:04:53;4.80;93.00
3418;DHT22;68007;51.312;12.372;2024-01-07T01:07:21;4.80;92.90
3418;DHT22;68007;51.312;12.372;2024-01-07T01:09:49;4.80;92.90
3418;DHT22;68007;51.312;12.372;2024-01-07T01:12:16;4.70;92.80
3418;DHT22;68007;51.312;12.372;2024-01-07T01:14:44;4.70;92.90
3418;DHT22;68007;51.312;12.372;2024-01-07T01:17:12;4.70;92.90
3418;DHT22;68007;51.312;12.372;2024-01-07T01:19:40;4.70;92.70
3418;DHT22;68007;51.312;12.372;2024-01-07T01:22:07;4.70;92.70
3418;DHT22;68007;51.312;12.372;2024-01-07T01:24:35;4.60;92.60
3418;DHT22;68007;51.312;12.372;2024-01-07T01:27:03;4.70;92.70
3418;DHT22;68007;51.312;12.372;2024-01-07T01:29:30;4.60;92.60
3418;DHT22;68007;51.312;12.372;2024-01-07T01:31:58;4.60;92.70
3418;DHT22;68007;51.312;12.372;2024-01-07T01:34:27;4.60;92.70
3418;DHT22;68007;51.312;12.372;2024-01-07T01:36:54;4.60;92.70
3418;DHT22;68007;51.312;12.372;2024-01-07T01:39:22;4.60;92.60
3418;DHT22;68007;51.312;12.372;2024-01-07T01:41:49;4.60;92.70
3418;DHT22;68007;51.312;12.372;2024-01-07T01:44:17;4.60;92.50
3418;DHT22;68007;51.312;12.372;2024-01-07T01:46:45;4.60;92.50
3418;DHT22;68007;51.312;12.372;2024-01-07T01:49:14;4.60;92.50
3418;DHT22;68007;51.312;12.372;2024-01-07T01:51:43;4.50;92.40
3418;DHT22;68007;51.312;12.372;2024-01-07T01:54:10;4.60;92.40
3418;DHT22;68007;51.312;12.372;2024-01-07T01:56:38;4.50;92.40
3418;DHT22;68007;51.312;12.372;2024-01-07T01:59:06;4.50;92.40
3418;DHT22;68007;51.312;12.372;2024-01-07T02:01:34;4.50;92.40
3418;DHT22;68007;51.312;12.372;2024-01-07T02:04:01;4.50;92.30
3418;DHT22;68007;51.312;12.372;2024-01-07T02:06:29;4.50;92.30
3418;DHT22;68007;51.312;12.372;2024-01-07T02:08:58;4.40;92.20
3418;DHT22;68007;51.312;12.372;2024-01-07T02:11:25;4.50;92.20
3418;DHT22;68007;51.312;12.372;2024-01-07T02:13:53;4.40;92.20
3418;DHT22;68007;51.312;12.372;2024-01-07T02:16:21;4.40;92.10
3418;DHT22;68007;51.312;12.372;2024-01-07T02:18:48;4.40;92.10
3418;DHT22;68007;51.312;12.372;2024-01-07T02:21:16;4.40;92.10
3418;DHT22;68007;51.312;12.372;2024-01-07T02:23:43;4.40;92.10
3418;DHT22;68007;51.312;12.372;2024-01-07T02:26:12;4.40;92.00
3418;DHT22;68007;51.312;12.372;2024-01-07T02:28:40;4.40;92.00
3418;DHT22;68007;51.312;12.372;2024-01-07T02:31:07;4.40;92.30
3418;DHT22;68007;51.312;12.372;2024-01-07T02:33:35;4.40;92.00
3418;DHT22;68007;51.312;12.372;2024-01-07T02:36:03;4.40;92.00
3418;DHT22;68007;51.312;12.372;2024-01-07T02:38:30;4.30;92.00
3418;DHT22;68007;51.312;12.372;2024-01-07T02:40:58;4.30;92.00
3418;DHT22;68007;51.312;12.372;2024-01-07T02:43:26;4.40;91.90
3418;DHT22;68007;51.312;12.372;2024-01-07T02:45:54;4.30;91.90
3418;DHT22;68007;51.312;12.372;2024-01-07T02:48:21;4.30;91.80
3418;DHT22;68007;51.312;12.372;2024-01-07T02:50:49;4.30;91.80
3418;DHT22;68007;51.312;12.372;2024-01-07T02:53:16;4.30;91.90
3418;DHT22;68007;51.312;12.372;2024-01-07T02:55:44;4.30;91.90
3418;DHT22;68007;51.312;12.372;2024-01-07T02:58:11;4.30;91.90
3418;DHT22;68007;51.312;12.372;2024-01-07T03:00:41;4.30;91.90
3418;DHT22;68007;51.312;12.372;2024-01-07T03:03:08;4.30;92.00
3418;DHT22;68007;51.312;12.372;2024-01-07T03:05:36;4.20;91.90
3418;DHT22;68007;51.312;12.372;2024-01-07T03:08:04;4.30;91.80
3418;DHT22;68007;51.312;12.372;2024-01-07T03:10:31;4.30;91.80
3418;DHT22;68007;51.312;12.372;2024-01-07T03:12:59;4.20;91.80
3418;DHT22;68007;51.312;12.372;2024-01-07T03:15:27;4.30;91.60
3418;DHT22;68007;51.312;12.372;2024-01-07T03:17:57;4.30;91.60
3418;DHT22;68007;51.312;12.372;2024-01-07T03:20:25;4.30;91.60
3418;DHT22;68007;51.312;12.372;2024-01-07T03:22:52;4.20;91.60
3418;DHT22;68007;51.312;12.372;2024-01-07T03:25:19;4.20;91.60
3418;DHT22;68007;51.312;12.372;2024-01-07T03:27:47;4.10;91.60
3418;DHT22;68007;51.312;12.372;2024-01-07T03:30:14;4.10;91.50
3418;DHT22;68007;51.312;12.372;2024-01-07T03:32:42;4.10;91.60
3418;DHT22;68007;51.312;12.372;2024-01-07T03:35:11;4.10;91.50
3418;DHT22;68007;51.312;12.372;2024-01-07T03:37:38;4.10;91.60
3418;DHT22;68007;51.312;12.372;2024-01-07T03:40:10;4.10;91.40
3418;DHT22;68007;51.312;12.372;2024-01-07T03:42:37;4.10;91.40
3418;DHT22;68007;51.312;12.372;2024-01-07T03:45:05;4.10;91.40
3418;DHT22;68007;51.312;12.372;2024-01-07T03:47:33;4.00;91.50
3418;DHT22;68007;51.312;12.372;2024-01-07T03:50:00;4.00;91.50
3418;DHT22;68007;51.312;12.372;2024-01-07T03:52:29;4.00;91.50
3418;DHT22;68007;51.312;12.372;2024-01-07T03:54:57;4.00;91.60
3418;DHT22;68007;51.312;12.372;2024-01-07T03:57:24;4.00;91.50
3418;DHT22;68007;51.312;12.372;2024-01-07T03:59:52;4.00;91.50
3418;DHT22;68007;51.312;12.372;2024-01-07T04:02:19;3.90;91.40
3418;DHT22;68007;51.312;12.372;2024-01-07T04:04:46;4.00;91.30
3418;DHT22;68007;51.312;12.372;2024-01-07T04:07:14;3.90;91.20
3418;DHT22;68007;51.312;12.372;2024-01-07T04:09:44;3.90;91.20
3418;DHT22;68007;51.312;12.372;2024-01-07T04:12:11;3.90;91.30
3418;DHT22;68007;51.312;12.372;2024-01-07T04:14:39;3.90;91.30
3418;DHT22;68007;51.312;12.372;2024-01-07T04:17:06;3.90;91.10
3418;DHT22;68007;51.312;12.372;2024-01-07T04:19:36;3.80;91.20
3418;DHT22;68007;51.312;12.372;2024-01-07T04:22:04;3.80;91.20
3418;DHT22;68007;51.312;12.372;2024-01-07T04:24:31;3.80;91.10
3418;DHT22;68007;51.312;12.372;2024-01-07T04:27:00;3.80;91.10
3418;DHT22;68007;51.312;12.372;2024-01-07T04:29:28;3.80;91.00
3418;DHT22;68007;51.312;12.372;2024-01-07T04:31:55;3.70;91.00
3418;DHT22;68007;51.312;12.372;2024-01-07T04:34:23;3.80;91.00
3418;DHT22;68007;51.312;12.372;2024-01-07T04:36:50;3.80;90.90
3418;DHT22;68007;51.312;12.372;2024-01-07T04:39:18;3.70;90.90
3418;DHT22;68007;51.312;12.372;2024-01-07T04:41:46;3.70;90.90
3418;DHT22;68007;51.312;12.372;2024-01-07T04:44:14;3.70;90.90
3418;DHT22;68007;51.312;12.372;2024-01-07T04:46:42;3.70;90.80
3418;DHT22;68007;51.312;12.372;2024-01-07T04:49:09;3.60;90.80
3418;DHT22;68007;51.312;12.372;2024-01-07T04:51:37;3.60;90.70
3418;DHT22;68007;51.312;12.372;2024-01-07T04:54:04;3.60;90.60
3418;DHT22;68007;51.312;12.372;2024-01-07T04:56:32;3.60;90.70
3418;DHT22;68007;51.312;12.372;2024-01-07T04:58:59;3.60;90.70
3418;DHT22;68007;51.312;12.372;2024-01-07T05:01:28;3.60;90.70
3418;DHT22;68007;51.312;12.372;2024-01-07T05:03:56;3.60;91.00
3418;DHT22;68007;51.312;12.372;2024-01-07T05:06:23;3.60;90.70
3418;DHT22;68007;51.312;12.372;2024-01-07T05:08:51;3.60;90.70
3418;DHT22;68007;51.312;12.372;2024-01-07T05:11:18;3.60;90.80
3418;DHT22;68007;51.312;12.372;2024-01-07T05:13:46;3.60;90.70
3418;DHT22;68007;51.312;12.372;2024-01-07T05:16:18;3.60;90.60
3418;DHT22;68007;51.312;12.372;2024-01-07T05:18:47;3.60;90.60
3418;DHT22;68007;51.312;12.372;2024-01-07T05:21:15;3.60;90.60
3418;DHT22;68007;51.312;12.372;2024-01-07T05:23:45;3.50;90.60
3418;DHT22;68007;51.312;12.372;2024-01-07T05:26:12;3.50;90.60
3418;DHT22;68007;51.312;12.372;2024-01-07T05:28:40;3.50;90.70
3418;DHT22;68007;51.312;12.372;2024-01-07T05:31:14;3.50;90.60
3418;DHT22;68007;51.312;12.372;2024-01-07T05:33:41;3.50;90.60
3418;DHT22;68007;51.312;12.372;2024-01-07T05:36:11;3.40;90.50
3418;DHT22;68007;51.312;12.372;2024-01-07T05:38:38;3.40;90.60
3418;DHT22;68007;51.312;12.372;2024-01-07T05:41:06;3.40;90.60
3418;DHT22;68007;51.312;12.372;2024-01-07T05:43:35;3.40;90.30
3418;DHT22;68007;51.312;12.372;2024-01-07T05:46:03;3.40;90.40
3418;DHT22;68007;51.312;12.372;2024-01-07T05:48:41;3.40;90.40
3418;DHT22;68007;51.312;12.372;2024-01-07T05:51:10;3.30;90.50
3418;DHT22;68007;51.312;12.372;2024-01-07T05:53:37;3.30;90.50
3418;DHT22;68007;51.312;12.372;2024-01-07T05:56:05;3.30;90.20
3418;DHT22;68007;51.312;12.372;2024-01-07T05:58:33;3.30;90.40
3418;DHT22;68007;51.312;12.372;2024-01-07T06:01:00;3.30;90.40
3418;DHT22;68007;51.312;12.372;2024-01-07T06:03:28;3.20;90.40
3418;DHT22;68007;51.312;12.372;2024-01-07T06:05:55;3.20;90.40
3418;DHT22;68007;51.312;12.372;2024-01-07T06:08:25;3.30;90.40
3418;DHT22;68007;51.312;12.372;2024-01-07T06:10:53;3.30;90.40
3418;DHT22;68007;51.312;12.372;2024-01-07T06:13:21;3.30;90.30
3418;DHT22;68007;51.312;12.372;2024-01-07T06:15:48;3.30;90.20
3418;DHT22;68007;51.312;12.372;2024-01-07T06:18:16;3.30;90.20
3418;DHT22;68007;51.312;12.372;2024-01-07T06:20:43;3.30;90.30
3418;DHT22;68007;51.312;12.372;2024-01-07T06:23:11;3.30;90.20
3418;DHT22;68007;51.312;12.372;2024-01-07T06:25:40;3.30;90.10
3418;DHT22;68007;51.312;12.372;2024-01-07T06:28:08;3.30;90.10
3418;DHT22;68007;51.312;12.372;2024-01-07T06:30:36;3.20;90.20
3418;DHT22;68007;51.312;12.372;2024-01-07T06:33:04;3.20;90.10
3418;DHT22;68007;51.312;12.372;2024-01-07T06:35:32;3.30;90.00
3418;DHT22;68007;51.312;12.372;2024-01-07T06:38:00;3.30;89.80
3418;DHT22;68007;51.312;12.372;2024-01-07T06:40:27;3.20;89.80
3418;DHT22;68007;51.312;12.372;2024-01-07T06:42:56;3.20;89.80
3418;DHT22;68007;51.312;12.372;2024-01-07T06:45:23;3.20;89.60
3418;DHT22;68007;51.312;12.372;2024-01-07T06:47:51;3.20;89.60
3418;DHT22;68007;51.312;12.372;2024-01-07T06:50:19;3.20;89.60
3418;DHT22;68007;51.312;12.372;2024-01-07T06:52:47;3.20;89.70
3418;DHT22;68007;51.312;12.372;2024-01-07T06:55:15;3.20;89.70
3418;DHT22;68007;51.312;12.372;2024-01-07T06:57:42;3.20;89.70
3418;DHT22;68007;51.312;12.372;2024-01-07T07:00:12;3.20;89.60
3418;DHT22;68007;51.312;12.372;2024-01-07T07:02:41;3.20;89.50
3418;DHT22;68007;51.312;12.372;2024-01-07T07:05:09;3.20;89.90
3418;DHT22;68007;51.312;12.372;2024-01-07T07:07:36;3.20;89.50
3418;DHT22;68007;51.312;12.372;2024-01-07T07:10:04;3.10;89.30
3418;DHT22;68007;51.312;12.372;2024-01-07T07:12:33;3.10;89.40
3418;DHT22;68007;51.312;12.372;2024-01-07T07:15:00;3.10;89.40
3418;DHT22;68007;51.312;12.372;2024-01-07T07:17:29;3.10;89.90
3418;DHT22;68007;51.312;12.372;2024-01-07T07:19:57;3.00;89.10
3418;DHT22;68007;51.312;12.372;2024-01-07T07:22:24;3.00;89.10
3418;DHT22;68007;51.312;12.372;2024-01-07T07:24:52;3.00;89.20
3418;DHT22;68007;51.312;12.372;2024-01-07T07:27:19;2.90;88.80
3418;DHT22;68007;51.312;12.372;2024-01-07T07:29:47;3.00;88.90
3418;DHT22;68007;51.312;12.372;2024-01-07T07:32:14;2.90;88.90
3418;DHT22;68007;51.312;12.372;2024-01-07T07:34:43;2.90;89.00
3418;DHT22;68007;51.312;12.372;2024-01-07T07:37:10;2.90;88.90
3418;DHT22;68007;51.312;12.372;2024-01-07T07:39:38;2.90;89.10
3418;DHT22;68007;51.312;12.372;2024-01-07T07:42:06;2.90;88.90
3418;DHT22;68007;51.312;12.372;2024-01-07T07:44:33;2.90;88.90
3418;DHT22;68007;51.312;12.372;2024-01-07T07:47:01;2.80;88.60
3418;DHT22;68007;51.312;12.372;2024-01-07T07:49:28;2.70;88.70
3418;DHT22;68007;51.312;12.372;2024-01-07T07:51:57;2.70;89.00
3418;DHT22;68007;51.312;12.372;2024-01-07T07:54:24;2.70;88.70
3418;DHT22;68007;51.312;12.372;2024-01-07T07:56:52;2.70;88.50
3418;DHT22;68007;51.312;12.372;2024-01-07T07:59:19;2.70;88.70
3418;DHT22;68007;51.312;12.372;2024-01-07T08:01:47;2.70;88.60
3418;DHT22;68007;51.312;12.372;2024-01-07T08:04:15;2.60;88.40
3418;DHT22;68007;51.312;12.372;2024-01-07T08:06:43;2.60;88.30
3418;DHT22;68007;51.312;12.372;2024-01-07T08:09:12;2.60;88.30
3418;DHT22;68007;51.312;12.372;2024-01-07T08:11:40;2.50;88.50
3418;DHT22;68007;51.312;12.372;2024-01-07T08:14:07;2.50;88.30
3418;DHT22;68007;51.312;12.372;2024-01-07T08:16:35;2.40;88.40
3418;DHT22;68007;51.312;12.372;2024-01-07T08:19:02;2.50;88.50
3418;DHT22;68007;51.312;12.372;2024-01-07T08:21:30;2.50;88.40
3418;DHT22;68007;51.312;12.372;2024-01-07T08:23:58;2.50;88.30
3418;DHT22;68007;51.312;12.372;2024-01-07T08:26:27;2.50;88.80
3418;DHT22;68007;51.312;12.372;2024-01-07T08:28:54;2.50;88.10
3418;DHT22;68007;51.312;12.372;2024-01-07T08:31:22;2.40;87.70
3418;DHT22;68007;51.312;12.372;2024-01-07T08:33:49;2.40;88.20
3418;DHT22;68007;51.312;12.372;2024-01-07T08:36:17;2.40;87.60
3418;DHT22;68007;51.312;12.372;2024-01-07T08:38:44;2.40;87.80
3418;DHT22;68007;51.312;12.372;2024-01-07T08:41:15;2.40;87.30
3418;DHT22;68007;51.312;12.372;2024-01-07T08:43:44;2.40;87.00
3418;DHT22;68007;51.312;12.372;2024-01-07T08:46:12;2.40;87.00
3418;DHT22;68007;51.312;12.372;2024-01-07T08:48:40;2.30;87.50
3418;DHT22;68007;51.312;12.372;2024-01-07T08:51:07;2.40;87.60
3418;DHT22;68007;51.312;12.372;2024-01-07T08:53:35;2.40;87.60
3418;DHT22;68007;51.312;12.372;2024-01-07T08:56:03;2.30;87.40
3418;DHT22;68007;51.312;12.372;2024-01-07T08:58:30;2.30;86.90
3418;DHT22;68007;51.312;12.372;2024-01-07T09:00:59;2.20;87.20
3418;DHT22;68007;51.312;12.372;2024-01-07T09:03:27;2.20;87.20
3418;DHT22;68007;51.312;12.372;2024-01-07T09:05:54;2.20;87.10
3418;DHT22;68007;51.312;12.372;2024-01-07T09:08:22;2.20;86.90
3418;DHT22;68007;51.312;12.372;2024-01-07T09:10:49;2.20;87.30
3418;DHT22;68007;51.312;12.372;2024-01-07T09:13:17;2.20;86.80
3418;DHT22;68007;51.312;12.372;2024-01-07T09:15:44;2.30;87.00
3418;DHT22;68007;51.312;12.372;2024-01-07T09:18:13;2.30;86.80
3418;DHT22;68007;51.312;12.372;2024-01-07T09:20:42;2.30;86.70
3418;DHT22;68007;51.312;12.372;2024-01-07T09:23:10;2.30;86.30
3418;DHT22;68007;51.312;12.372;2024-01-07T09:25:37;2.30;86.50
3418;DHT22;68007;51.312;12.372;2024-01-07T09:28:05;2.20;86.20
3418;DHT22;68007;51.312;12.372;2024-01-07T09:30:32;2.20;85.80
3418;DHT22;68007;51.312;12.372;2024-01-07T09:33:00;2.20;85.90
3418;DHT22;68007;51.312;12.372;2024-01-07T09:35:29;2.20;86.00
3418;DHT22;68007;51.312;12.372;2024-01-07T09:37:56;2.10;85.90
3418;DHT22;68007;51.312;12.372;2024-01-07T09:40:24;2.20;85.80
3418;DHT22;68007;51.312;12.372;2024-01-07T09:42:51;2.20;85.80
3418;DHT22;68007;51.312;12.372;2024-01-07T09:45:20;2.10;85.60
3418;DHT22;68007;51.312;12.372;2024-01-07T09:47:48;2.10;85.70
3418;DHT22;68007;51.312;12.372;2024-01-07T09:50:16;2.20;86.10
3418;DHT22;68007;51.312;12.372;2024-01-07T09:52:46;2.10;85.90
3418;DHT22;68007;51.312;12.372;2024-01-07T09:55:22;2.10;85.70
3418;DHT22;68007;51.312;12.372;2024-01-07T09:57:53;2.10;85.60
3418;DHT22;68007;51.312;12.372;2024-01-07T10:00:21;2.10;85.70
3418;DHT22;68007;51.312;12.372;2024-01-07T10:02:49;2.10;85.70
3418;DHT22;68007;51.312;12.372;2024-01-07T10:05:16;2.10;85.50
3418;DHT22;68007;51.312;12.372;2024-01-07T10:07:45;2.10;86.00
3418;DHT22;68007;51.312;12.372;2024-01-07T10:10:14;2.10;85.30
3418;DHT22;68007;51.312;12.372;2024-01-07T10:12:41;2.10;85.40
3418;DHT22;68007;51.312;12.372;2024-01-07T10:15:10;2.10;85.90
3418;DHT22;68007;51.312;12.372;2024-01-07T10:17:39;2.10;85.00
3418;DHT22;68007;51.312;12.372;2024-01-07T10:20:07;2.20;85.00
3418;DHT22;68007;51.312;12.372;2024-01-07T10:22:37;2.10;85.10
3418;DHT22;68007;51.312;12.372;2024-01-07T10:25:06;2.10;85.00
3418;DHT22;68007;51.312;12.372;2024-01-07T10:27:34;2.10;85.00
3418;DHT22;68007;51.312;12.372;2024-01-07T10:30:02;2.10;85.10
3418;DHT22;68007;51.312;12.372;2024-01-07T10:32:30;2.10;84.80
3418;DHT22;68007;51.312;12.372;2024-01-07T10:35:02;2.20;85.10
3418;DHT22;68007;51.312;12.372;2024-01-07T10:37:31;2.10;84.70
3418;DHT22;68007;51.312;12.372;2024-01-07T10:39:59;2.20;84.70
3418;DHT22;68007;51.312;12.372;2024-01-07T10:42:32;2.20;84.70
3418;DHT22;68007;51.312;12.372;2024-01-07T10:45:00;2.20;84.10
3418;DHT22;68007;51.312;12.372;2024-01-07T10:47:30;2.20;84.10
3418;DHT22;68007;51.312;12.372;2024-01-07T10:49:59;2.20;84.00
3418;DHT22;68007;51.312;12.372;2024-01-07T10:52:27;2.20;84.20
3418;DHT22;68007;51.312;12.372;2024-01-07T10:54:56;2.20;84.10
3418;DHT22;68007;51.312;12.372;2024-01-07T10:57:34;2.20;84.70
3418;DHT22;68007;51.312;12.372;2024-01-07T11:00:02;2.30;83.50
3418;DHT22;68007;51.312;12.372;2024-01-07T11:02:33;2.30;83.80
3418;DHT22;68007;51.312;12.372;2024-01-07T11:05:08;2.30;82.90
3418;DHT22;68007;51.312;12.372;2024-01-07T11:07:43;2.30;83.10
3418;DHT22;68007;51.312;12.372;2024-01-07T11:10:14;2.30;82.70
3418;DHT22;68007;51.312;12.372;2024-01-07T11:12:53;2.30;82.70
3418;DHT22;68007;51.312;12.372;2024-01-07T11:15:51;2.30;82.10
3418;DHT22;68007;51.312;12.372;2024-01-07T11:18:19;2.40;82.60
3418;DHT22;68007;51.312;12.372;2024-01-07T11:20:47;2.40;82.40
3418;DHT22;68007;51.312;12.372;2024-01-07T11:23:28;2.40;82.50
3418;DHT22;68007;51.312;12.372;2024-01-07T11:25:57;2.40;82.20
3418;DHT22;68007;51.312;12.372;2024-01-07T11:28:47;2.40;82.30
3418;DHT22;68007;51.312;12.372;2024-01-07T11:31:15;2.50;82.30
3418;DHT22;68007;51.312;12.372;2024-01-07T11:33:44;2.40;81.80
3418;DHT22;68007;51.312;12.372;2024-01-07T11:36:13;2.40;82.30
3418;DHT22;68007;51.312;12.372;2024-01-07T11:38:44;2.40;81.70
3418;DHT22;68007;51.312;12.372;2024-01-07T11:41:12;2.40;82.10
3418;DHT22;68007;51.312;12.372;2024-01-07T11:43:54;2.40;81.80
3418;DHT22;68007;51.312;12.372;2024-01-07T11:46:23;2.50;81.70
3418;DHT22;68007;51.312;12.372;2024-01-07T11:48:53;2.40;81.70
3418;DHT22;68007;51.312;12.372;2024-01-07T11:51:24;2.40;81.80
3418;DHT22;68007;51.312;12.372;2024-01-07T11:53:52;2.50;82.00
3418;DHT22;68007;51.312;12.372;2024-01-07T11:56:20;2.50;81.80
3418;DHT22;68007;51.312;12.372;2024-01-07T11:58:47;2.50;81.70
3418;DHT22;68007;51.312;12.372;2024-01-07T12:01:16;2.50;81.70
3418;DHT22;68007;51.312;12.372;2024-01-07T12:03:44;2.50;81.60
3418;DHT22;68007;51.312;12.372;2024-01-07T12:06:12;2.50;81.00
3418;DHT22;68007;51.312;12.372;2024-01-07T12:08:40;2.50;81.20
3418;DHT22;68007;51.312;12.372;2024-01-07T12:11:09;2.50;81.30
3418;DHT22;68007;51.312;12.372;2024-01-07T12:13:38;2.50;81.00
3418;DHT22;68007;51.312;12.372;2024-01-07T12:16:07;2.40;81.10
3418;DHT22;68007;51.312;12.372;2024-01-07T12:18:37;2.50;81.30
3418;DHT22;68007;51.312;12.372;2024-01-07T12:21:05;2.40;81.20
3418;DHT22;68007;51.312;12.372;2024-01-07T12:23:35;2.40;81.40
3418;DHT22;68007;51.312;12.372;2024-01-07T12:26:08;2.50;81.50
3418;DHT22;68007;51.312;12.372;2024-01-07T12:28:36;2.50;81.20
3418;DHT22;68007;51.312;12.372;2024-01-07T12:31:04;2.50;81.30
3418;DHT22;68007;51.312;12.372;2024-01-07T12:33:31;2.50;81.20
3418;DHT22;68007;51.312;12.372;2024-01-07T12:36:01;2.60;81.50
3418;DHT22;68007;51.312;12.372;2024-01-07T12:38:29;2.50;82.00
3418;DHT22;68007;51.312;12.372;2024-01-07T12:40:56;2.50;81.10
3418;DHT22;68007;51.312;12.372;2024-01-07T12:43:24;2.60;81.30
3418;DHT22;68007;51.312;12.372;2024-01-07T12:45:52;2.60;81.40
3418;DHT22;68007;51.312;12.372;2024-01-07T12:48:21;2.60;81.30
3418;DHT22;68007;51.312;12.372;2024-01-07T12:50:48;2.60;81.30
3418;DHT22;68007;51.312;12.372;2024-01-07T12:53:17;2.60;81.30
3418;DHT22;68007;51.312;12.372;2024-01-07T12:55:45;2.60;81.40
3418;DHT22;68007;51.312;12.372;2024-01-07T12:58:12;2.60;81.50
3418;DHT22;68007;51.312;12.372;2024-01-07T13:00:40;2.60;81.40
3418;DHT22;68007;51.312;12.372;2024-01-07T13:03:08;2.60;81.50
3418;DHT22;68007;51.312;12.372;2024-01-07T13:05:39;2.60;81.50
3418;DHT22;68007;51.312;12.372;2024-01-07T13:08:08;2.60;81.40
3418;DHT22;68007;51.312;12.372;2024-01-07T13:10:37;2.60;81.60
3418;DHT22;68007;51.312;12.372;2024-01-07T13:13:04;2.70;81.50
3418;DHT22;68007;51.312;12.372;2024-01-07T13:15:32;2.70;81.50
3418;DHT22;68007;51.312;12.372;2024-01-07T13:17:59;2.70;81.40
3418;DHT22;68007;51.312;12.372;2024-01-07T13:20:27;2.70;81.30
3418;DHT22;68007;51.312;12.372;2024-01-07T13:22:54;2.60;81.30
3418;DHT22;68007;51.312;12.372;2024-01-07T13:25:22;2.60;81.20
3418;DHT22;68007;51.312;12.372;2024-01-07T13:27:51;2.60;81.40
3418;DHT22;68007;51.312;12.372;2024-01-07T13:30:18;2.60;81.20
3418;DHT22;68007;51.312;12.372;2024-01-07T13:32:46;2.60;81.40
3418;DHT22;68007;51.312;12.372;2024-01-07T13:35:15;2.60;81.20
3418;DHT22;68007;51.312;12.372;2024-01-07T13:37:43;2.60;81.30
3418;DHT22;68007;51.312;12.372;2024-01-07T13:40:12;2.70;81.50
3418;DHT22;68007;51.312;12.372;2024-01-07T13:42:40;2.60;81.20
3418;DHT22;68007;51.312;12.372;2024-01-07T13:45:09;2.60;81.30
3418;DHT22;68007;51.312;12.372;2024-01-07T13:47:39;2.60;81.50
3418;DHT22;68007;51.312;12.372;2024-01-07T13:50:07;2.60;81.40
3418;DHT22;68007;51.312;12.372;2024-01-07T13:52:36;2.60;81.40
3418;DHT22;68007;51.312;12.372;2024-01-07T13:55:05;2.60;81.50
3418;DHT22;68007;51.312;12.372;2024-01-07T13:57:35;2.60;81.40
3418;DHT22;68007;51.312;12.372;2024-01-07T14:00:03;2.60;81.60
3418;DHT22;68007;51.312;12.372;2024-01-07T14:02:37;2.60;81.80
3418;DHT22;68007;51.312;12.372;2024-01-07T14:05:05;2.60;81.60
3418;DHT22;68007;51.312;12.372;2024-01-07T14:07:35;2.60;81.80
3418;DHT22;68007;51.312;12.372;2024-01-07T14:10:02;2.60;81.70
3418;DHT22;68007;51.312;12.372;2024-01-07T14:12:31;2.60;81.70
3418;DHT22;68007;51.312;12.372;2024-01-07T14:14:58;2.60;81.80
3418;DHT22;68007;51.312;12.372;2024-01-07T14:17:26;2.60;81.70
3418;DHT22;68007;51.312;12.372;2024-01-07T14:19:55;2.60;81.60
3418;DHT22;68007;51.312;12.372;2024-01-07T14:22:22;2.60;81.50
3418;DHT22;68007;51.312;12.372;2024-01-07T14:24:50;2.50;81.40
3418;DHT22;68007;51.312;12.372;2024-01-07T14:27:18;2.50;81.70
3418;DHT22;68007;51.312;12.372;2024-01-07T14:29:45;2.50;82.00
3418;DHT22;68007;51.312;12.372;2024-01-07T14:32:13;2.40;82.20
3418;DHT22;68007;51.312;12.372;2024-01-07T14:34:41;2.40;82.30
3418;DHT22;68007;51.312;12.372;2024-01-07T14:37:11;2.40;82.20
3418;DHT22;68007;51.312;12.372;2024-01-07T14:39:39;2.40;82.00
3418;DHT22;68007;51.312;12.372;2024-01-07T14:42:07;2.40;82.30
3418;DHT22;68007;51.312;12.372;2024-01-07T14:44:35;2.30;82.30
3418;DHT22;68007;51.312;12.372;2024-01-07T14:47:03;2.40;82.60
3418;DHT22;68007;51.312;12.372;2024-01-07T14:49:30;2.40;82.60
3418;DHT22;68007;51.312;12.372;2024-01-07T14:51:58;2.30;82.20
3418;DHT22;68007;51.312;12.372;2024-01-07T14:54:27;2.30;82.30
3418;DHT22;68007;51.312;12.372;2024-01-07T14:56:57;2.20;82.40
3418;DHT22;68007;51.312;12.372;2024-01-07T14:59:25;2.20;82.60
3418;DHT22;68007;51.312;12.372;2024-01-07T15:01:52;2.20;82.90
3418;DHT22;68007;51.312;12.372;2024-01-07T15:04:20;2.20;82.90
3418;DHT22;68007;51.312;12.372;2024-01-07T15:06:47;2.20;83.00
3418;DHT22;68007;51.312;12.372;2024-01-07T15:09:15;2.20;83.10
3418;DHT22;68007;51.312;12.372;2024-01-07T15:11:44;2.20;83.10
3418;DHT22;68007;51.312;12.372;2024-01-07T15:14:14;2.20;83.20
3418;DHT22;68007;51.312;12.372;2024-01-07T15:16:42;2.20;83.20
3418;DHT22;68007;51.312;12.372;2024-01-07T15:19:10;2.20;83.00
3418;DHT22;68007;51.312;12.372;2024-01-07T15:21:38;2.20;83.20
3418;DHT22;68007;51.312;12.372;2024-01-07T15:24:05;2.10;83.40
3418;DHT22;68007;51.312;12.372;2024-01-07T15:26:33;2.10;83.60
3418;DHT22;68007;51.312;12.372;2024-01-07T15:29:03;2.00;84.00
3418;DHT22;68007;51.312;12.372;2024-01-07T15:31:31;2.00;84.10
3418;DHT22;68007;51.312;12.372;2024-01-07T15:33:58;2.10;84.30
3418;DHT22;68007;51.312;12.372;2024-01-07T15:36:26;2.10;84.70
3418;DHT22;68007;51.312;12.372;2024-01-07T15:38:53;2.10;85.10
3418;DHT22;68007;51.312;12.372;2024-01-07T15:41:21;2.10;85.20
3418;DHT22;68007;51.312;12.372;2024-01-07T15:43:48;2.10;85.40
3418;DHT22;68007;51.312;12.372;2024-01-07T15:46:17;2.10;85.50
3418;DHT22;68007;51.312;12.372;2024-01-07T15:48:45;2.10;85.70
3418;DHT22;68007;51.312;12.372;2024-01-07T15:51:12;2.50;84.90